createdAt,value
2019-04-16T00:01:35.378Z,16.73
2019-04-16T00:04:25.010Z,14.80
2019-04-16T00:07:11.676Z,12.17
2019-04-16T00:10:08.563Z,14.27
2019-04-16T00:12:48.125Z,11.27
2019-04-16T00:15:15.291Z,12.20
2019-04-16T00:17:44.406Z,9.90
2019-04-16T00:20:11.336Z,14.83
2019-04-16T00:22:45.300Z,12.37
2019-04-16T00:25:12.368Z,12.80
2019-04-16T00:27:39.965Z,11.33
2019-04-16T00:30:07.550Z,26.97
2019-04-16T00:32:38.052Z,13.80
2019-04-16T00:35:04.235Z,14.90
2019-04-16T00:37:31.458Z,12.00
2019-04-16T00:39:58.504Z,14.67
2019-04-16T00:42:25.793Z,19.10
2019-04-16T00:44:53.660Z,12.97
2019-04-16T00:47:22.074Z,12.33
2019-04-16T00:49:49.322Z,13.23
2019-04-16T00:52:16.344Z,12.53
2019-04-16T00:54:43.651Z,11.97
2019-04-16T00:57:10.758Z,12.40
2019-04-16T00:59:38.611Z,16.30
2019-04-16T01:02:06.273Z,9.90
2019-04-16T01:04:33.292Z,11.83
2019-04-16T01:07:00.681Z,12.30
2019-04-16T01:09:28.559Z,10.83
2019-04-16T01:11:56.746Z,13.00
2019-04-16T01:14:24.291Z,12.57
2019-04-16T01:16:52.933Z,11.80
2019-04-16T01:19:19.938Z,11.00
2019-04-16T01:21:47.011Z,10.03
2019-04-16T01:24:14.060Z,13.67
2019-04-16T01:26:41.117Z,13.17
2019-04-16T01:29:12.634Z,17.97
2019-04-16T01:32:12.145Z,12.13
2019-04-16T01:34:57.798Z,12.77
2019-04-16T01:37:43.550Z,13.67
2019-04-16T01:40:13.010Z,12.17
2019-04-16T01:42:40.152Z,12.93
2019-04-16T01:45:07.268Z,9.20
2019-04-16T01:47:37.117Z,12.07
2019-04-16T01:50:04.041Z,11.03
2019-04-16T01:52:31.155Z,11.90
2019-04-16T01:54:58.653Z,10.43
2019-04-16T01:57:28.362Z,10.03
2019-04-16T01:59:55.132Z,10.80
2019-04-16T02:02:22.364Z,10.93
2019-04-16T02:04:52.068Z,10.10
2019-04-16T02:07:18.640Z,11.83
2019-04-16T02:09:45.785Z,12.63
2019-04-16T02:12:14.114Z,11.00
2019-04-16T02:14:41.204Z,15.20
2019-04-16T02:17:08.985Z,10.23
2019-04-16T02:19:36.064Z,17.40
2019-04-16T02:22:03.139Z,15.90
2019-04-16T02:24:30.186Z,19.73
2019-04-16T02:26:57.481Z,32.67
2019-04-16T02:29:30.514Z,22.80
2019-04-16T02:31:57.563Z,18.67
2019-04-16T02:34:24.666Z,12.33
2019-04-16T02:36:57.445Z,12.00
2019-04-16T02:39:31.798Z,13.80
2019-04-16T02:41:57.029Z,12.73
2019-04-16T02:44:21.546Z,16.50
2019-04-16T02:46:48.583Z,21.23
2019-04-16T02:49:15.790Z,17.67
2019-04-16T02:51:51.201Z,11.57
2019-04-16T02:54:49.606Z,15.13
2019-04-16T02:57:39.524Z,12.30
2019-04-16T03:00:18.557Z,11.87
2019-04-16T03:02:58.031Z,14.00
2019-04-16T03:05:30.590Z,12.30
2019-04-16T03:08:01.543Z,15.53
2019-04-16T03:10:27.993Z,18.80
2019-04-16T03:12:55.442Z,18.73
2019-04-16T03:15:42.066Z,12.83
2019-04-16T03:18:11.687Z,16.00
2019-04-16T03:20:38.560Z,11.50
2019-04-16T03:23:06.660Z,12.13
2019-04-16T03:25:33.800Z,12.97
2019-04-16T03:28:00.923Z,8.17
2019-04-16T03:30:27.850Z,13.57
2019-04-16T03:32:55.070Z,13.90
2019-04-16T03:35:25.007Z,12.17
2019-04-16T03:37:50.962Z,10.90
2019-04-16T03:40:18.891Z,11.73
2019-04-16T03:42:46.829Z,22.97
2019-04-16T03:45:14.072Z,12.27
2019-04-16T03:47:41.209Z,15.33
2019-04-16T03:50:08.623Z,13.60
2019-04-16T03:52:37.533Z,13.60
2019-04-16T03:55:04.800Z,14.83
2019-04-16T03:57:33.217Z,11.30
2019-04-16T04:00:01.029Z,11.47
2019-04-16T04:02:28.116Z,12.40
2019-04-16T04:04:57.584Z,9.33
2019-04-16T04:07:25.713Z,12.70
2019-04-16T04:09:54.524Z,9.23
2019-04-16T04:12:22.078Z,12.37
2019-04-16T04:14:51.279Z,11.90
2019-04-16T04:17:18.056Z,12.53
2019-04-16T04:19:46.138Z,10.87
2019-04-16T04:22:13.906Z,10.87
2019-04-16T04:24:40.885Z,11.60
2019-04-16T04:27:12.836Z,13.20
2019-04-16T04:29:36.874Z,11.33
2019-04-16T04:32:04.290Z,11.20
2019-04-16T04:34:31.771Z,19.03
2019-04-16T04:36:59.698Z,10.13
2019-04-16T04:39:27.197Z,10.63
2019-04-16T04:41:56.443Z,12.10
2019-04-16T04:44:24.570Z,11.87
2019-04-16T04:46:51.515Z,14.07
2019-04-16T04:49:18.762Z,11.60
2019-04-16T04:51:45.713Z,10.63
2019-04-16T04:54:12.711Z,11.07
2019-04-16T04:56:40.055Z,12.50
2019-04-16T04:59:07.229Z,12.33
2019-04-16T05:01:34.427Z,11.13
2019-04-16T05:04:24.408Z,9.20
2019-04-16T05:06:57.287Z,12.03
2019-04-16T05:09:24.510Z,12.83
2019-04-16T05:11:51.506Z,16.07
2019-04-16T05:14:18.596Z,11.30
2019-04-16T05:16:46.692Z,11.90
2019-04-16T05:19:15.375Z,15.63
2019-04-16T05:21:42.779Z,12.57
2019-04-16T05:24:09.754Z,9.50
2019-04-16T05:26:37.342Z,12.70
2019-04-16T05:29:16.328Z,27.43
2019-04-16T05:31:41.641Z,10.00
2019-04-16T05:34:09.296Z,11.03
2019-04-16T05:36:36.546Z,12.13
2019-04-16T05:39:06.181Z,10.70
2019-04-16T05:41:33.137Z,9.30
2019-04-16T05:44:01.769Z,13.43
2019-04-16T05:46:29.500Z,9.43
2019-04-16T05:49:17.448Z,10.33
2019-04-16T05:51:44.798Z,15.77
2019-04-16T05:54:41.499Z,13.10
2019-04-16T05:57:11.750Z,9.30
2019-04-16T05:59:38.903Z,11.90
2019-04-16T06:02:17.894Z,10.30
2019-04-16T06:04:43.066Z,10.13
2019-04-16T06:07:10.036Z,9.43
2019-04-16T06:09:37.156Z,12.47
2019-04-16T06:12:05.943Z,11.40
2019-04-16T06:14:37.484Z,14.83
2019-04-16T06:17:32.149Z,11.90
2019-04-16T06:20:33.554Z,14.50
2019-04-16T06:23:26.264Z,10.97
2019-04-16T06:26:02.799Z,8.60
2019-04-16T06:28:57.120Z,13.80
2019-04-16T06:31:29.985Z,14.23
2019-04-16T06:34:15.485Z,12.47
2019-04-16T06:36:47.174Z,9.67
2019-04-16T06:39:36.433Z,10.47
2019-04-16T06:42:09.697Z,12.50
2019-04-16T06:44:51.532Z,11.17
2019-04-16T06:47:42.075Z,10.10
2019-04-16T06:50:31.870Z,10.27
2019-04-16T06:53:14.629Z,9.93
2019-04-16T06:55:59.477Z,10.57
2019-04-16T06:58:50.151Z,11.83
2019-04-16T07:01:27.974Z,13.23
2019-04-16T07:03:59.530Z,10.63
2019-04-16T07:06:44.754Z,11.60
2019-04-16T07:09:41.441Z,11.53
2019-04-16T07:12:06.188Z,14.10
2019-04-16T07:14:36.006Z,16.73
2019-04-16T07:17:02.472Z,10.60
2019-04-16T07:19:29.759Z,14.13
2019-04-16T07:21:56.769Z,10.80
2019-04-16T07:24:24.000Z,13.07
2019-04-16T07:26:56.200Z,18.60
2019-04-16T07:29:25.209Z,12.30
2019-04-16T07:32:01.075Z,11.77
2019-04-16T07:34:35.045Z,10.77
2019-04-16T07:37:20.256Z,12.23
2019-04-16T07:40:14.653Z,9.37
2019-04-16T07:42:52.428Z,11.33
2019-04-16T07:45:36.109Z,13.00
2019-04-16T07:48:32.614Z,9.50
2019-04-16T07:51:17.878Z,12.93
2019-04-16T07:54:18.783Z,10.30
2019-04-16T07:56:48.430Z,10.90
2019-04-16T07:59:15.404Z,13.43
2019-04-16T08:01:44.108Z,11.90
2019-04-16T08:04:11.260Z,10.37
2019-04-16T08:06:38.291Z,10.40
2019-04-16T08:09:06.534Z,16.53
2019-04-16T08:11:33.628Z,15.10
2019-04-16T08:14:00.786Z,14.57
2019-04-16T08:16:27.785Z,11.60
2019-04-16T08:18:54.724Z,13.43
2019-04-16T08:21:22.760Z,16.70
2019-04-16T08:23:55.866Z,13.50
2019-04-16T08:26:22.863Z,12.10
2019-04-16T08:28:51.692Z,10.73
2019-04-16T08:31:22.057Z,12.53
2019-04-16T08:33:49.034Z,11.83
2019-04-16T08:36:16.118Z,10.30
2019-04-16T08:38:43.396Z,11.03
2019-04-16T08:41:12.723Z,15.13
2019-04-16T08:43:39.290Z,12.73
2019-04-16T08:46:10.240Z,11.40
2019-04-16T08:48:35.961Z,11.67
2019-04-16T08:51:05.235Z,12.73
2019-04-16T08:53:31.982Z,11.57
2019-04-16T08:55:59.594Z,15.90
2019-04-16T08:58:26.515Z,11.90
2019-04-16T09:00:53.485Z,12.87
2019-04-16T09:03:21.779Z,15.57
2019-04-16T09:05:48.763Z,13.07
2019-04-16T09:08:30.332Z,18.63
2019-04-16T09:11:02.752Z,10.70
2019-04-16T09:13:29.879Z,12.93
2019-04-16T09:15:56.839Z,15.97
2019-04-16T09:18:42.757Z,14.20
2019-04-16T09:21:11.498Z,12.43
2019-04-16T09:23:38.796Z,13.93
2019-04-16T09:26:22.623Z,11.43
2019-04-16T09:29:09.573Z,13.90
2019-04-16T09:31:37.897Z,12.80
2019-04-16T09:34:39.604Z,13.20
2019-04-16T09:37:25.499Z,12.53
2019-04-16T09:40:17.885Z,17.13
2019-04-16T09:42:39.659Z,14.33
2019-04-16T09:45:08.932Z,12.77
2019-04-16T09:47:36.206Z,19.87
2019-04-16T09:50:09.800Z,14.03
2019-04-16T09:52:32.699Z,12.77
2019-04-16T09:54:59.986Z,13.43
2019-04-16T09:57:30.870Z,22.70
2019-04-16T09:59:59.086Z,17.60
2019-04-16T10:02:29.093Z,12.63
2019-04-16T10:04:57.971Z,18.73
2019-04-16T10:07:25.115Z,16.03
2019-04-16T10:09:54.468Z,14.40
2019-04-16T10:12:20.987Z,16.40
2019-04-16T10:14:47.994Z,17.03
2019-04-16T10:17:15.126Z,14.97
2019-04-16T10:19:43.240Z,14.97
2019-04-16T10:22:11.238Z,15.30
2019-04-16T10:25:16.258Z,14.57
2019-04-16T10:28:04.913Z,16.63
2019-04-16T10:30:40.583Z,19.47
2019-04-16T10:33:07.709Z,17.00
2019-04-16T10:35:35.291Z,14.43
2019-04-16T10:38:13.940Z,13.90
2019-04-16T10:40:43.715Z,13.60
2019-04-16T10:43:43.873Z,14.13
2019-04-16T10:46:09.782Z,15.33
2019-04-16T10:48:55.291Z,15.57
2019-04-16T10:51:48.165Z,17.90
2019-04-16T10:54:38.380Z,22.93
2019-04-16T10:57:29.193Z,13.37
2019-04-16T11:00:22.141Z,15.93
2019-04-16T11:02:57.690Z,21.23
2019-04-16T11:05:38.953Z,17.40
2019-04-16T11:08:07.534Z,19.87
2019-04-16T11:10:35.152Z,14.33
2019-04-16T11:13:04.177Z,14.90
2019-04-16T11:15:31.481Z,15.40
2019-04-16T11:17:58.781Z,15.03
2019-04-16T11:20:25.795Z,17.57
2019-04-16T11:22:52.774Z,20.63
2019-04-16T11:25:19.821Z,13.97
2019-04-16T11:27:46.964Z,18.17
2019-04-16T11:30:28.496Z,15.00
2019-04-16T11:32:55.591Z,15.07
2019-04-16T11:35:23.187Z,16.60
2019-04-16T11:37:50.404Z,15.07
2019-04-16T11:40:17.581Z,16.73
2019-04-16T11:42:44.622Z,16.90
2019-04-16T11:45:13.315Z,14.93
2019-04-16T11:47:40.292Z,14.23
2019-04-16T11:50:07.386Z,15.70
2019-04-16T11:52:34.355Z,13.60
2019-04-16T11:55:01.435Z,16.27
2019-04-16T11:57:29.358Z,16.30
2019-04-16T12:00:06.529Z,14.77
2019-04-16T12:02:31.552Z,16.63
2019-04-16T12:05:18.212Z,19.00
2019-04-16T12:08:05.173Z,17.33
2019-04-16T12:10:58.075Z,20.30
2019-04-16T12:13:31.681Z,15.37
2019-04-16T12:16:25.434Z,20.80
2019-04-16T12:19:21.353Z,15.50
2019-04-16T12:22:17.580Z,16.93
2019-04-16T12:25:12.386Z,17.20
2019-04-16T12:28:06.457Z,16.47
2019-04-16T12:30:59.314Z,20.73
2019-04-16T12:33:36.219Z,18.03
2019-04-16T12:36:29.428Z,15.70
2019-04-16T12:39:19.832Z,13.37
2019-04-16T12:41:55.369Z,16.50
2019-04-16T12:44:27.282Z,14.73
2019-04-16T12:47:22.446Z,17.50
2019-04-16T12:50:03.756Z,19.90
2019-04-16T12:52:51.903Z,16.40
2019-04-16T12:55:32.529Z,19.40
2019-04-16T12:58:09.849Z,19.53
2019-04-16T13:01:03.871Z,18.70
2019-04-16T13:03:53.473Z,22.50
2019-04-16T13:06:37.955Z,25.07
2019-04-16T13:09:33.596Z,21.47
2019-04-16T13:12:26.923Z,18.83
2019-04-16T13:15:12.344Z,22.00
2019-04-16T13:18:01.926Z,21.77
2019-04-16T13:20:47.278Z,22.43
2019-04-16T13:23:32.873Z,20.07
2019-04-16T13:26:19.475Z,16.90
2019-04-16T13:28:46.890Z,18.93
2019-04-16T13:31:13.894Z,19.23
2019-04-16T13:33:43.580Z,21.60
2019-04-16T13:36:10.131Z,20.80
2019-04-16T13:38:40.440Z,28.63
2019-04-16T13:41:08.242Z,21.67
2019-04-16T13:43:40.635Z,22.10
2019-04-16T13:46:07.949Z,29.33
2019-04-16T13:48:59.757Z,21.60
2019-04-16T13:51:26.757Z,28.30
2019-04-16T13:54:00.844Z,38.37
2019-04-16T13:56:31.134Z,29.07
2019-04-16T13:59:16.595Z,24.67
2019-04-16T14:01:48.571Z,25.03
2019-04-16T14:04:15.603Z,30.63
2019-04-16T14:06:45.995Z,24.40
2019-04-16T14:09:12.072Z,26.23
2019-04-16T14:11:39.270Z,27.37
2019-04-16T14:14:07.554Z,25.60
2019-04-16T14:16:35.399Z,27.93
2019-04-16T14:19:05.941Z,21.57
2019-04-16T14:21:31.242Z,20.67
2019-04-16T14:23:58.696Z,26.30
2019-04-16T14:26:25.768Z,22.73
2019-04-16T14:28:52.749Z,21.93
2019-04-16T14:31:21.926Z,24.37
2019-04-16T14:34:03.038Z,23.53
2019-04-16T14:36:30.083Z,26.70
2019-04-16T14:39:00.717Z,20.70
2019-04-16T14:41:27.774Z,25.23
2019-04-16T14:44:02.410Z,25.63
2019-04-16T14:46:29.853Z,29.10
2019-04-16T14:48:56.839Z,22.23
2019-04-16T14:51:23.913Z,24.07
2019-04-16T14:54:16.321Z,22.90
2019-04-16T14:56:48.523Z,23.10
2019-04-16T14:59:37.965Z,20.47
2019-04-16T15:02:22.870Z,24.77
2019-04-16T15:05:27.706Z,25.90
2019-04-16T15:08:14.317Z,23.27
2019-04-16T15:11:03.797Z,24.40
2019-04-16T15:13:37.079Z,25.73
2019-04-16T15:16:26.431Z,26.17
2019-04-16T15:19:12.013Z,25.83
2019-04-16T15:21:56.902Z,21.60
2019-04-16T15:24:43.463Z,23.80
2019-04-16T15:27:37.349Z,23.57
2019-04-16T15:30:12.362Z,24.17
2019-04-16T15:32:57.908Z,21.10
2019-04-16T15:35:35.416Z,23.03
2019-04-16T15:38:22.120Z,24.97
2019-04-16T15:40:50.128Z,22.53
2019-04-16T15:43:36.806Z,24.70
2019-04-16T15:46:27.026Z,19.60
2019-04-16T15:49:12.109Z,22.20
2019-04-16T15:51:50.625Z,21.57
2019-04-16T15:54:33.102Z,23.90
2019-04-16T15:57:18.800Z,23.20
2019-04-16T15:59:57.557Z,21.53
2019-04-16T16:02:45.323Z,22.30
2019-04-16T16:05:28.802Z,24.60
2019-04-16T16:08:14.448Z,22.27
2019-04-16T16:10:46.558Z,20.30
2019-04-16T16:13:13.666Z,19.90
2019-04-16T16:15:43.274Z,24.33
2019-04-16T16:18:10.443Z,21.10
2019-04-16T16:20:38.563Z,19.77
2019-04-16T16:23:05.565Z,21.30
2019-04-16T16:25:32.490Z,20.23
2019-04-16T16:27:59.627Z,19.90
2019-04-16T16:30:26.675Z,19.30
2019-04-16T16:32:53.851Z,20.90
2019-04-16T16:35:21.381Z,19.87
2019-04-16T16:37:48.494Z,23.80
2019-04-16T16:40:16.180Z,18.00
2019-04-16T16:42:43.491Z,21.67
2019-04-16T16:45:11.115Z,20.90
2019-04-16T16:47:40.108Z,18.83
2019-04-16T16:50:10.415Z,19.73
2019-04-16T16:52:53.369Z,19.23
2019-04-16T16:55:33.804Z,17.77
2019-04-16T16:58:09.202Z,21.67
2019-04-16T17:00:47.683Z,19.40
2019-04-16T17:03:37.802Z,19.57
2019-04-16T17:06:06.708Z,20.43
2019-04-16T17:08:33.698Z,20.67
2019-04-16T17:11:14.706Z,21.07
2019-04-16T17:13:29.651Z,22.97
2019-04-16T17:15:56.952Z,18.80
2019-04-16T17:18:23.943Z,25.13
2019-04-16T17:20:50.919Z,20.00
2019-04-16T17:23:17.901Z,19.90
2019-04-16T17:25:45.096Z,20.23
2019-04-16T17:28:12.163Z,18.63
2019-04-16T17:30:39.569Z,19.73
2019-04-16T17:33:07.053Z,18.37
2019-04-16T17:35:34.134Z,18.57
2019-04-16T17:38:03.662Z,20.67
2019-04-16T17:40:46.239Z,21.67
2019-04-16T17:43:18.818Z,25.17
2019-04-16T17:45:56.561Z,18.83
2019-04-16T17:48:38.907Z,17.93
2019-04-16T17:51:25.501Z,16.57
2019-04-16T17:54:05.650Z,20.63
2019-04-16T17:56:56.352Z,24.57
2019-04-16T17:59:31.863Z,19.40
2019-04-16T18:02:25.126Z,17.17
2019-04-16T18:05:12.789Z,19.73
2019-04-16T18:07:54.445Z,18.73
2019-04-16T18:10:42.431Z,16.50
2019-04-16T18:13:25.144Z,19.00
2019-04-16T18:15:59.671Z,21.93
2019-04-16T18:18:40.453Z,23.10
2019-04-16T18:21:22.738Z,16.23
2019-04-16T18:24:01.843Z,18.40
2019-04-16T18:26:47.377Z,17.90
2019-04-16T18:29:23.708Z,15.90
2019-04-16T18:31:56.546Z,20.13
2019-04-16T18:34:50.658Z,17.13
2019-04-16T18:37:37.447Z,17.80
2019-04-16T18:40:34.304Z,15.80
2019-04-16T18:43:26.908Z,20.20
2019-04-16T18:46:17.628Z,24.60
2019-04-16T18:48:45.984Z,20.83
2019-04-16T18:51:34.493Z,23.07
2019-04-16T18:54:02.711Z,19.00
2019-04-16T18:56:29.958Z,23.00
2019-04-16T18:58:57.137Z,19.50
2019-04-16T19:01:29.680Z,22.90
2019-04-16T19:03:56.674Z,19.33
2019-04-16T19:06:23.999Z,20.87
2019-04-16T19:08:51.451Z,27.13
2019-04-16T19:11:20.491Z,21.97
2019-04-16T19:13:48.265Z,25.17
2019-04-16T19:16:15.723Z,24.17
2019-04-16T19:18:42.870Z,21.87
2019-04-16T19:21:10.342Z,22.23
2019-04-16T19:23:39.476Z,24.63
2019-04-16T19:26:08.322Z,20.53
2019-04-16T19:28:36.261Z,20.67
2019-04-16T19:31:04.956Z,24.20
2019-04-16T19:33:37.791Z,22.87
2019-04-16T19:36:01.238Z,24.33
2019-04-16T19:38:28.468Z,26.77
2019-04-16T19:40:55.806Z,20.90
2019-04-16T19:43:23.086Z,31.03
2019-04-16T19:45:50.202Z,25.60
2019-04-16T19:48:34.233Z,26.70
2019-04-16T19:50:47.902Z,23.33
2019-04-16T19:53:15.174Z,24.53
2019-04-16T19:55:45.611Z,24.10
2019-04-16T19:58:12.975Z,20.10
2019-04-16T20:00:40.438Z,28.97
2019-04-16T20:03:07.685Z,23.57
2019-04-16T20:05:34.994Z,22.60
2019-04-16T20:08:02.920Z,21.40
2019-04-16T20:10:40.593Z,21.37
2019-04-16T20:13:09.274Z,25.73
2019-04-16T20:15:36.562Z,27.00
2019-04-16T20:18:06.295Z,22.50
2019-04-16T20:20:34.760Z,24.50
2019-04-16T20:23:01.769Z,23.03
2019-04-16T20:25:28.922Z,26.33
2019-04-16T20:27:56.101Z,30.57
2019-04-16T20:30:25.075Z,24.37
2019-04-16T20:32:52.135Z,24.33
2019-04-16T20:35:19.685Z,30.70
2019-04-16T20:37:46.700Z,22.53
2019-04-16T20:40:14.610Z,29.20
2019-04-16T20:42:42.811Z,25.57
2019-04-16T20:45:11.380Z,22.57
2019-04-16T20:47:40.008Z,23.50
2019-04-16T20:50:08.790Z,28.20
2019-04-16T20:52:36.108Z,26.40
2019-04-16T20:55:04.065Z,26.30
2019-04-16T20:57:31.538Z,27.20
2019-04-16T20:59:58.986Z,27.93
2019-04-16T21:02:28.298Z,24.00
2019-04-16T21:04:58.257Z,26.80
2019-04-16T21:07:25.345Z,23.57
2019-04-16T21:09:52.603Z,24.10
2019-04-16T21:12:19.752Z,25.30
2019-04-16T21:14:47.254Z,24.20
2019-04-16T21:17:14.690Z,26.50
2019-04-16T21:19:48.039Z,30.20
2019-04-16T21:22:16.598Z,25.50
2019-04-16T21:24:45.395Z,28.23
2019-04-16T21:27:12.931Z,25.70
2019-04-16T21:29:40.004Z,30.47
2019-04-16T21:32:10.774Z,24.13
2019-04-16T21:34:49.592Z,26.93
2019-04-16T21:37:38.789Z,25.70
2019-04-16T21:40:05.883Z,26.33
2019-04-16T21:42:34.849Z,24.13
2019-04-16T21:45:02.273Z,26.47
2019-04-16T21:47:29.409Z,26.37
2019-04-16T21:49:56.943Z,24.50
2019-04-16T21:52:24.037Z,29.37
2019-04-16T21:54:51.103Z,25.37
2019-04-16T21:57:18.129Z,25.57
2019-04-16T21:59:45.229Z,20.17
2019-04-16T22:02:38.936Z,22.77
2019-04-16T22:05:07.810Z,25.20
2019-04-16T22:07:34.839Z,23.60
2019-04-16T22:10:02.156Z,24.50
2019-04-16T22:12:29.100Z,28.00
2019-04-16T22:14:56.239Z,28.03
2019-04-16T22:17:23.593Z,22.13
2019-04-16T22:19:54.507Z,27.43
2019-04-16T22:22:20.475Z,25.63
2019-04-16T22:24:47.694Z,26.23
2019-04-16T22:27:14.701Z,22.43
2019-04-16T22:29:47.260Z,23.50
2019-04-16T22:32:11.225Z,23.03
2019-04-16T22:34:39.334Z,22.57
2019-04-16T22:37:06.422Z,27.03
2019-04-16T22:39:39.947Z,29.20
2019-04-16T22:42:29.595Z,21.90
2019-04-16T22:45:21.827Z,24.77
2019-04-16T22:47:48.874Z,28.53
2019-04-16T22:50:17.271Z,23.77
2019-04-16T22:52:46.016Z,28.90
2019-04-16T22:55:13.410Z,26.13
2019-04-16T22:57:40.481Z,25.30
2019-04-16T23:00:16.482Z,22.03
2019-04-16T23:02:47.844Z,23.97
2019-04-16T23:05:12.777Z,24.07
2019-04-16T23:07:40.374Z,25.17
2019-04-16T23:10:07.517Z,25.87
2019-04-16T23:12:34.550Z,27.23
2019-04-16T23:15:01.578Z,29.50
2019-04-16T23:17:29.290Z,26.67
2019-04-16T23:19:56.414Z,28.07
2019-04-16T23:22:23.617Z,25.23
2019-04-16T23:24:51.829Z,26.70
2019-04-16T23:27:19.814Z,26.40
2019-04-16T23:29:47.620Z,27.50
2019-04-16T23:32:15.328Z,28.80
2019-04-16T23:34:42.323Z,29.50
2019-04-16T23:37:09.429Z,27.47
2019-04-16T23:39:37.633Z,33.90
2019-04-16T23:42:04.849Z,28.53
2019-04-16T23:45:00.935Z,28.47
2019-04-16T23:47:42.073Z,28.37
2019-04-16T23:50:22.837Z,25.67
2019-04-16T23:52:58.404Z,29.80
2019-04-16T23:55:50.022Z,31.23
2019-04-16T23:58:31.052Z,27.10
